Time;durP1;ratioP1;P1;durP2;ratioP2;P2;SDS_P1;SDS_P2;PMS_P1;PMS_P2;Temp;Humidity;BMP_temperature;BMP_pressure;BME280_temperature;BME280_humidity;BME280_pressure;Samples;Min_cycle;Max_cycle;Signal;HPM_P1;HPM_P2
2022/08/28 00:02:19;;;;;;;55.03;31.92;;;16.30;99.90;;;;;;6131502;23;20089;-84
2022/08/28 00:04:45;;;;;;;52.95;30.88;;;16.20;99.90;;;;;;6130934;23;20009;-84
2022/08/28 00:07:11;;;;;;;59.45;32.88;;;16.20;99.90;;;;;;6131334;23;20013;-84
2022/08/28 00:09:36;;;;;;;49.65;29.60;;;16.20;99.90;;;;;;6131019;23;20021;-83
2022/08/28 00:12:04;;;;;;;47.00;29.40;;;16.20;99.90;;;;;;6131008;23;20010;-84
2022/08/28 00:14:33;;;;;;;51.72;29.13;;;16.20;99.90;;;;;;6155601;23;20009;-84
2022/08/28 00:16:59;;;;;;;47.00;28.25;;;16.20;99.90;;;;;;6155892;23;20020;-84
2022/08/28 00:19:25;;;;;;;42.88;27.88;;;16.20;99.90;;;;;;6131033;23;20037;-84
2022/08/28 00:21:50;;;;;;;49.85;27.48;;;16.20;99.90;;;;;;6155968;23;20427;-83
2022/08/28 00:24:16;;;;;;;44.00;26.38;;;16.10;99.90;;;;;;6157309;23;20779;-84
2022/08/28 00:29:40;;;;;;;36.88;24.80;;;16.10;99.90;;;;;;6122879;23;20017;-84
2022/08/28 00:32:07;;;;;;;43.30;25.58;;;16.10;99.90;;;;;;6130962;23;20012;-84
2022/08/28 00:34:33;;;;;;;42.90;24.83;;;16.10;99.90;;;;;;6130671;23;20728;-84
2022/08/28 00:36:59;;;;;;;38.97;24.92;;;16.10;99.90;;;;;;6155912;23;20006;-84
2022/08/28 00:39:25;;;;;;;41.83;26.40;;;16.10;99.90;;;;;;6156043;23;20092;-83
2022/08/28 00:41:51;;;;;;;37.67;24.20;;;16.10;99.90;;;;;;6130464;23;20037;-84
2022/08/28 00:44:20;;;;;;;40.08;25.27;;;16.10;99.90;;;;;;6130475;23;20018;-84
2022/08/28 00:46:49;;;;;;;37.83;25.77;;;16.10;99.90;;;;;;6155362;23;20001;-83
2022/08/28 00:49:18;;;;;;;43.47;25.75;;;16.00;99.90;;;;;;6156084;23;20013;-83
2022/08/28 00:54:32;;;;;;;37.72;23.58;;;16.00;99.90;;;;;;6155226;23;20009;-83
2022/08/28 00:57:02;;;;;;;40.05;21.60;;;16.00;99.90;;;;;;6155935;23;20002;-83
2022/08/28 00:59:27;;;;;;;39.00;23.77;;;15.90;99.90;;;;;;6155954;23;20088;-83
2022/08/28 01:01:56;;;;;;;37.92;23.25;;;15.90;99.90;;;;;;6131306;23;20044;-83
2022/08/28 01:04:24;;;;;;;35.75;22.73;;;16.00;99.90;;;;;;6155193;23;20039;-84
2022/08/28 01:06:53;;;;;;;38.08;22.08;;;16.00;99.90;;;;;;6130924;23;20200;-83
2022/08/28 01:09:20;;;;;;;42.78;23.73;;;15.90;99.90;;;;;;6155068;23;20005;-84
2022/08/28 01:11:48;;;;;;;36.35;23.25;;;15.90;99.90;;;;;;6130248;23;20430;-83
2022/08/28 01:14:17;;;;;;;36.88;22.75;;;15.90;99.90;;;;;;6129734;23;20006;-84
2022/08/28 01:16:44;;;;;;;35.35;23.42;;;15.90;99.90;;;;;;6130131;23;20013;-83
2022/08/28 01:19:16;;;;;;;38.55;23.95;;;15.90;99.90;;;;;;6129489;23;20040;-83
2022/08/28 01:21:53;;;;;;;37.38;23.77;;;15.90;99.90;;;;;;6130022;23;20011;-83
2022/08/28 01:24:20;;;;;;;37.80;23.90;;;15.90;99.90;;;;;;6131009;23;20009;-83
2022/08/28 01:26:46;;;;;;;38.17;22.67;;;15.90;99.90;;;;;;6130926;23;20013;-83
2022/08/28 01:29:12;;;;;;;31.13;22.27;;;15.90;99.90;;;;;;6130857;23;20652;-83
2022/08/28 01:31:39;;;;;;;37.75;22.75;;;15.80;99.90;;;;;;6155468;23;20009;-83
2022/08/28 01:34:07;;;;;;;32.78;21.60;;;15.80;99.90;;;;;;6130035;23;20013;-83
2022/08/28 01:36:34;;;;;;;37.15;23.25;;;15.80;99.90;;;;;;6130744;23;20006;-83
2022/08/28 01:39:17;;;;;;;34.72;22.05;;;15.80;99.90;;;;;;6131046;23;20010;-83
2022/08/28 01:41:45;;;;;;;39.33;23.08;;;15.80;99.90;;;;;;6130903;23;20006;-83
2022/08/28 01:44:13;;;;;;;37.80;23.00;;;15.80;99.90;;;;;;6130406;23;20465;-83
2022/08/28 01:46:42;;;;;;;37.63;22.45;;;15.80;99.90;;;;;;6130637;23;20013;-84
2022/08/28 01:49:10;;;;;;;31.25;21.38;;;15.80;99.90;;;;;;6130644;23;20013;-83
2022/08/28 01:51:37;;;;;;;40.13;23.33;;;15.80;99.90;;;;;;6155462;23;20013;-83
2022/08/28 01:54:04;;;;;;;31.63;22.13;;;15.80;99.90;;;;;;6129258;23;20088;-83
2022/08/28 01:56:31;;;;;;;37.55;23.17;;;15.80;99.90;;;;;;6130271;23;20088;-83
2022/08/28 01:58:57;;;;;;;37.60;21.38;;;15.80;99.90;;;;;;6155000;23;20021;-83
2022/08/28 02:01:23;;;;;;;32.60;22.48;;;15.70;99.90;;;;;;6130496;23;20013;-83
2022/08/28 02:03:51;;;;;;;35.22;22.65;;;15.80;99.90;;;;;;6129727;23;20084;-83
2022/08/28 02:06:17;;;;;;;37.17;23.52;;;15.70;99.90;;;;;;6130154;23;20323;-84
2022/08/28 02:08:43;;;;;;;36.50;23.80;;;15.70;99.90;;;;;;6129925;23;20021;-83
2022/08/28 02:14:56;;;;;;;40.20;23.40;;;15.60;99.90;;;;;;6156375;23;20354;-83
2022/08/28 02:17:21;;;;;;;36.85;23.75;;;15.60;99.90;;;;;;6154761;23;20006;-83
2022/08/28 02:19:47;;;;;;;39.47;24.40;;;15.60;99.90;;;;;;6155710;23;20005;-83
2022/08/28 02:22:13;;;;;;;42.63;25.70;;;15.50;99.90;;;;;;6129520;23;20005;-84
2022/08/28 02:24:39;;;;;;;37.72;25.08;;;15.60;99.90;;;;;;6129318;23;20435;-83
2022/08/28 02:27:05;;;;;;;39.75;25.00;;;15.50;99.90;;;;;;6129557;23;20435;-83
2022/08/28 02:29:31;;;;;;;40.92;24.45;;;15.50;99.90;;;;;;6155088;23;20602;-83
2022/08/28 02:31:56;;;;;;;41.67;24.50;;;15.40;99.90;;;;;;6130227;23;20040;-83
2022/08/28 02:34:22;;;;;;;42.13;25.85;;;15.40;99.90;;;;;;6154336;23;20020;-83
2022/08/28 02:36:48;;;;;;;42.42;26.10;;;15.40;99.90;;;;;;6130198;23;20083;-83
2022/08/28 02:39:14;;;;;;;43.15;26.42;;;15.30;99.90;;;;;;6154871;23;20010;-83
2022/08/28 02:41:40;;;;;;;40.92;25.80;;;15.30;99.90;;;;;;6154703;23;20342;-83
2022/08/28 02:44:06;;;;;;;40.10;25.85;;;15.20;99.90;;;;;;6153820;23;20017;-83
2022/08/28 02:46:32;;;;;;;40.78;24.13;;;15.20;99.90;;;;;;6129052;23;20432;-83
2022/08/28 02:48:58;;;;;;;39.60;25.77;;;15.20;99.90;;;;;;6153621;23;20032;-83
2022/08/28 02:51:39;;;;;;;42.10;27.50;;;15.10;99.90;;;;;;6128518;23;20013;-83
2022/08/28 02:54:05;;;;;;;41.47;25.92;;;15.10;99.90;;;;;;6153139;23;20009;-83
2022/08/28 02:56:30;;;;;;;47.15;27.00;;;15.10;99.90;;;;;;6128851;23;20410;-83
2022/08/28 02:58:57;;;;;;;48.70;28.17;;;15.00;99.90;;;;;;6128934;23;20005;-83
2022/08/28 03:01:23;;;;;;;45.90;27.42;;;15.00;99.90;;;;;;6152712;23;20426;-83
2022/08/28 03:03:49;;;;;;;44.95;26.35;;;15.10;99.90;;;;;;6152904;23;20009;-83
2022/08/28 03:06:14;;;;;;;42.42;25.73;;;15.10;99.90;;;;;;6153372;23;20434;-83
2022/08/28 03:08:41;;;;;;;48.58;27.33;;;15.10;99.90;;;;;;6129120;23;20493;-83
2022/08/28 03:11:07;;;;;;;43.28;26.55;;;15.10;99.90;;;;;;6129100;23;20017;-83
2022/08/28 03:13:33;;;;;;;47.33;27.58;;;15.10;99.90;;;;;;6128795;23;20644;-83
2022/08/28 03:15:59;;;;;;;41.67;25.83;;;15.10;99.90;;;;;;6153999;23;20109;-83
2022/08/28 03:18:29;;;;;;;41.50;25.25;;;15.10;99.90;;;;;;6129341;23;20093;-83
2022/08/28 03:20:55;;;;;;;40.55;26.27;;;15.10;99.90;;;;;;6129582;23;20017;-83
2022/08/28 03:23:25;;;;;;;41.40;24.90;;;15.10;99.90;;;;;;6129110;23;20005;-83
2022/08/28 03:26:11;;;;;;;42.28;26.95;;;15.10;99.90;;;;;;6153748;23;20001;-83
2022/08/28 03:28:42;;;;;;;43.22;25.73;;;15.20;99.90;;;;;;6128608;23;20010;-83
2022/08/28 03:34:32;;;;;;;42.50;25.55;;;15.20;99.90;;;;;;6153016;23;20570;-83
2022/08/28 03:37:08;;;;;;;48.20;26.08;;;15.10;99.90;;;;;;6127970;23;20316;-83
2022/08/28 03:39:33;;;;;;;40.33;26.08;;;15.20;99.90;;;;;;6153094;23;20009;-83
2022/08/28 03:41:59;;;;;;;44.53;26.75;;;15.10;99.90;;;;;;6128654;23;20080;-83
2022/08/28 03:44:25;;;;;;;38.40;24.52;;;15.10;99.90;;;;;;6153551;23;20013;-83
2022/08/28 03:46:51;;;;;;;40.35;26.48;;;15.10;99.90;;;;;;6129344;23;20068;-83
2022/08/28 03:49:16;;;;;;;43.97;26.13;;;15.10;99.90;;;;;;6129255;23;20010;-84
2022/08/28 03:51:42;;;;;;;45.15;26.50;;;15.10;99.90;;;;;;6129123;23;20009;-83
2022/08/28 03:54:08;;;;;;;43.97;25.58;;;15.10;99.90;;;;;;6128609;23;20013;-83
2022/08/28 03:56:34;;;;;;;51.40;26.67;;;15.10;99.90;;;;;;6129170;23;20009;-83
2022/08/28 03:59:01;;;;;;;38.25;25.05;;;15.00;99.90;;;;;;6128802;23;20045;-83
2022/08/28 04:01:28;;;;;;;42.25;25.23;;;15.00;99.90;;;;;;6128713;23;20064;-83
2022/08/28 04:04:09;;;;;;;40.13;23.55;;;15.00;99.90;;;;;;6128733;23;20497;-83
2022/08/28 04:06:34;;;;;;;41.97;25.42;;;15.00;99.90;;;;;;6129169;23;20019;-83
2022/08/28 04:09:01;;;;;;;72.20;45.13;;;15.00;99.90;;;;;;6129182;23;20451;-83
2022/08/28 04:11:27;;;;;;;60.92;35.75;;;15.00;99.90;;;;;;6128846;23;20040;-83
2022/08/28 04:13:53;;;;;;;46.58;26.88;;;14.90;99.90;;;;;;6153584;23;20438;-83
2022/08/28 04:16:19;;;;;;;40.95;26.60;;;14.90;99.90;;;;;;6153935;23;20096;-83
2022/08/28 04:18:47;;;;;;;37.78;24.65;;;14.90;99.90;;;;;;6129463;23;20093;-83
2022/08/28 04:21:15;;;;;;;41.25;24.63;;;14.90;99.90;;;;;;6129034;23;20441;-83
2022/08/28 04:23:43;;;;;;;39.97;25.73;;;14.90;99.90;;;;;;6128466;23;20092;-83
2022/08/28 04:26:13;;;;;;;43.72;25.85;;;14.90;99.90;;;;;;6154548;23;20009;-83
2022/08/28 04:28:40;;;;;;;40.45;24.92;;;14.90;99.90;;;;;;6128790;23;20014;-83
2022/08/28 04:31:31;;;;;;;38.28;24.73;;;14.90;99.90;;;;;;6128681;23;20033;-83
2022/08/28 04:34:02;;;;;;;48.58;28.00;;;14.90;99.90;;;;;;6152578;23;20530;-83
2022/08/28 04:36:28;;;;;;;43.20;25.80;;;15.00;99.90;;;;;;6153355;23;20006;-83
2022/08/28 04:38:56;;;;;;;41.47;25.45;;;15.00;99.90;;;;;;6128584;23;20005;-83
2022/08/28 04:41:22;;;;;;;43.88;26.00;;;15.00;99.90;;;;;;6129160;23;20016;-83
2022/08/28 04:43:47;;;;;;;44.88;24.30;;;15.10;99.90;;;;;;6153352;23;20010;-84
2022/08/28 04:46:14;;;;;;;40.83;25.77;;;15.10;99.90;;;;;;6155222;23;20005;-83
2022/08/28 04:48:40;;;;;;;44.90;24.30;;;15.10;99.90;;;;;;6131032;23;20065;-83
2022/08/28 04:51:08;;;;;;;37.30;24.38;;;15.10;99.90;;;;;;6155170;23;20437;-83
2022/08/28 04:53:35;;;;;;;38.92;24.75;;;15.10;99.90;;;;;;6130423;23;20733;-83
2022/08/28 04:56:08;;;;;;;37.95;24.08;;;15.10;99.90;;;;;;6155265;23;20005;-83
2022/08/28 04:58:34;;;;;;;35.65;22.98;;;15.10;99.90;;;;;;6130791;23;20088;-83
2022/08/28 05:01:05;;;;;;;38.08;23.95;;;15.10;99.90;;;;;;6130785;23;20037;-83
2022/08/28 05:03:32;;;;;;;40.13;25.27;;;15.20;99.90;;;;;;6131134;23;20021;-84
2022/08/28 05:05:58;;;;;;;40.65;24.50;;;15.20;99.90;;;;;;6130549;23;20064;-83
2022/08/28 05:08:26;;;;;;;35.15;23.33;;;15.30;99.90;;;;;;6130916;23;20434;-83
2022/08/28 05:10:53;;;;;;;41.90;25.10;;;15.30;99.90;;;;;;6154318;23;20160;-83
2022/08/28 05:13:20;;;;;;;35.80;22.33;;;15.30;99.90;;;;;;6129579;23;20082;-83
2022/08/28 05:15:48;;;;;;;34.45;21.83;;;15.30;99.90;;;;;;6154247;23;20006;-83
2022/08/28 05:18:16;;;;;;;34.67;21.55;;;15.30;99.90;;;;;;6129503;23;20013;-83
2022/08/28 05:20:45;;;;;;;30.40;21.15;;;15.40;99.90;;;;;;6129659;23;20009;-83
2022/08/28 05:23:12;;;;;;;31.42;21.08;;;15.40;99.90;;;;;;6129981;23;20056;-83
2022/08/28 05:25:40;;;;;;;32.08;20.58;;;15.40;99.90;;;;;;6130441;23;20431;-83
2022/08/28 05:28:08;;;;;;;31.05;19.85;;;15.50;99.90;;;;;;6129890;23;20014;-83
2022/08/28 05:30:34;;;;;;;35.42;21.48;;;15.50;99.90;;;;;;6130009;23;20016;-83
2022/08/28 05:33:00;;;;;;;33.00;20.63;;;15.50;99.90;;;;;;6129777;23;20017;-83
2022/08/28 05:35:26;;;;;;;28.30;18.85;;;15.60;99.90;;;;;;6130040;23;20013;-84
2022/08/28 05:37:52;;;;;;;30.38;18.90;;;15.60;99.90;;;;;;6155928;23;20056;-83
2022/08/28 05:40:21;;;;;;;24.23;18.30;;;15.70;99.90;;;;;;6155153;23;20024;-84
2022/08/28 05:42:48;;;;;;;29.35;19.85;;;15.70;99.90;;;;;;6154637;23;20438;-83
2022/08/28 05:45:14;;;;;;;27.95;16.80;;;15.80;99.90;;;;;;6129600;23;20033;-83
2022/08/28 05:47:39;;;;;;;24.70;15.55;;;15.80;99.90;;;;;;6129769;23;20104;-83
2022/08/28 05:50:07;;;;;;;26.58;16.38;;;15.90;99.90;;;;;;6154537;23;20005;-83
2022/08/28 05:52:34;;;;;;;24.40;16.75;;;15.90;99.90;;;;;;6130020;23;20016;-83
2022/08/28 05:55:00;;;;;;;23.98;16.27;;;15.90;99.90;;;;;;6153057;23;20021;-83
2022/08/28 05:57:25;;;;;;;22.20;16.92;;;16.00;99.90;;;;;;6154123;23;20001;-84
2022/08/28 05:59:52;;;;;;;26.40;17.60;;;16.00;99.90;;;;;;6129525;23;20005;-83
2022/08/28 06:02:18;;;;;;;24.52;16.92;;;16.00;99.90;;;;;;6128957;23;20438;-83
2022/08/28 06:04:44;;;;;;;23.75;15.80;;;16.00;99.90;;;;;;6128947;23;20017;-83
2022/08/28 06:07:12;;;;;;;22.05;15.15;;;16.10;99.90;;;;;;6154215;23;20005;-83
2022/08/28 06:09:38;;;;;;;31.45;15.60;;;16.20;99.90;;;;;;6153069;23;20434;-83
2022/08/28 06:12:04;;;;;;;20.38;14.40;;;16.30;99.90;;;;;;6147489;23;20100;-83
2022/08/28 06:14:30;;;;;;;26.10;14.80;;;16.30;99.90;;;;;;6128828;23;20041;-84
2022/08/28 06:16:57;;;;;;;20.27;15.27;;;16.40;99.90;;;;;;6154085;23;20010;-84
2022/08/28 06:19:24;;;;;;;21.33;13.23;;;16.40;99.90;;;;;;6129966;23;20005;-83
2022/08/28 06:22:33;;;;;;;22.38;15.32;;;16.50;99.90;;;;;;6130038;23;20012;-84
2022/08/28 06:24:58;;;;;;;25.95;13.95;;;16.40;99.90;;;;;;6129371;23;20016;-84
2022/08/28 06:27:24;;;;;;;17.58;12.55;;;16.50;99.90;;;;;;6129359;23;20084;-83
2022/08/28 06:29:50;;;;;;;19.67;12.90;;;16.50;99.90;;;;;;6154429;23;20016;-83
2022/08/28 06:32:15;;;;;;;19.58;13.63;;;16.60;99.90;;;;;;6154625;23;20654;-83
2022/08/28 06:34:41;;;;;;;18.40;12.90;;;16.70;99.90;;;;;;6129643;23;20009;-83
2022/08/28 06:37:08;;;;;;;19.92;12.90;;;16.70;99.90;;;;;;6130106;23;20016;-83
2022/08/28 06:39:34;;;;;;;24.17;12.95;;;16.70;99.90;;;;;;6154464;23;20029;-84
2022/08/28 06:42:00;;;;;;;20.33;12.88;;;16.80;99.90;;;;;;6129743;23;20013;-83
2022/08/28 06:44:25;;;;;;;23.90;11.30;;;16.90;99.90;;;;;;6129490;23;20434;-83
2022/08/28 06:46:52;;;;;;;18.67;11.45;;;17.00;99.90;;;;;;6154274;23;20500;-83
2022/08/28 06:49:18;;;;;;;21.25;12.27;;;17.10;99.90;;;;;;6129759;23;20016;-83
2022/08/28 06:51:44;;;;;;;15.27;10.00;;;17.20;99.90;;;;;;6154692;23;20346;-83
2022/08/28 06:54:10;;;;;;;23.13;11.70;;;17.30;99.90;;;;;;6128520;23;20009;-84
2022/08/28 06:56:37;;;;;;;18.38;11.13;;;17.40;99.90;;;;;;6129125;23;20040;-83
2022/08/28 06:59:03;;;;;;;19.98;11.65;;;17.40;99.90;;;;;;6129167;23;20356;-82
2022/08/28 07:01:33;;;;;;;17.00;10.63;;;17.40;99.90;;;;;;6130022;23;20006;-83
2022/08/28 07:04:06;;;;;;;22.08;11.98;;;17.40;99.90;;;;;;6128724;23;20097;-83
2022/08/28 07:06:34;;;;;;;20.55;11.02;;;17.50;99.90;;;;;;6128888;23;20009;-83
2022/08/28 07:09:01;;;;;;;14.55;10.30;;;17.70;99.90;;;;;;6129275;23;20018;-83
2022/08/28 07:11:30;;;;;;;15.35;9.85;;;17.80;99.90;;;;;;6129294;23;20005;-83
2022/08/28 07:13:56;;;;;;;14.52;10.20;;;18.00;99.90;;;;;;6128629;23;20017;-83
2022/08/28 07:16:25;;;;;;;22.92;9.27;;;18.20;99.90;;;;;;6155923;23;20002;-83
2022/08/28 07:18:51;;;;;;;16.80;9.52;;;18.30;99.90;;;;;;6129450;23;20655;-83
2022/08/28 07:21:17;;;;;;;18.13;10.25;;;18.40;99.90;;;;;;6155755;23;20462;-83
2022/08/28 07:23:44;;;;;;;18.92;9.40;;;18.60;99.90;;;;;;6129059;23;20041;-83
2022/08/28 07:26:14;;;;;;;16.02;9.18;;;18.70;99.90;;;;;;6129395;23;20013;-83
2022/08/28 07:28:39;;;;;;;15.05;8.82;;;18.80;99.90;;;;;;6129190;23;20643;-83
2022/08/28 07:31:16;;;;;;;13.45;9.13;;;18.90;99.90;;;;;;6153218;23;20010;-83
2022/08/28 07:33:42;;;;;;;10.23;7.85;;;19.00;99.90;;;;;;6152339;23;20005;-83
2022/08/28 07:36:14;;;;;;;14.68;9.00;;;19.20;99.90;;;;;;6155219;23;19998;-83
2022/08/28 07:38:40;;;;;;;13.75;8.60;;;19.20;99.90;;;;;;6155695;23;20771;-83
2022/08/28 07:41:15;;;;;;;13.13;9.02;;;19.40;99.90;;;;;;6129872;23;20017;-83
2022/08/28 07:47:10;;;;;;;17.73;8.55;;;19.60;99.90;;;;;;6153678;23;20491;-83
2022/08/28 07:49:38;;;;;;;16.20;9.48;;;19.70;99.90;;;;;;6128957;23;20036;-83
2022/08/28 07:52:05;;;;;;;16.33;8.75;;;19.80;99.90;;;;;;6128827;23;20009;-83
2022/08/28 07:54:31;;;;;;;13.23;7.80;;;20.00;99.90;;;;;;6128666;23;20017;-83
2022/08/28 07:56:57;;;;;;;14.88;8.25;;;20.10;99.90;;;;;;6128824;23;20016;-83
2022/08/28 07:59:23;;;;;;;13.90;8.02;;;20.40;99.90;;;;;;6128875;23;20039;-83
2022/08/28 08:01:50;;;;;;;12.00;7.57;;;20.60;99.90;;;;;;6128784;23;20005;-83
2022/08/28 08:04:18;;;;;;;16.67;8.68;;;20.60;99.90;;;;;;6128817;23;20002;-83
2022/08/28 08:06:45;;;;;;;13.95;8.63;;;20.40;99.90;;;;;;6152572;23;20552;-84
2022/08/28 08:09:14;;;;;;;11.82;8.43;;;20.10;99.90;;;;;;6128878;23;20014;-83
2022/08/28 08:11:41;;;;;;;16.00;8.88;;;19.80;99.90;;;;;;6129439;23;20013;-83
2022/08/28 08:14:07;;;;;;;14.77;8.05;;;19.60;99.90;;;;;;6127945;23;20010;-83
2022/08/28 08:16:37;;;;;;;17.38;9.10;;;19.60;99.90;;;;;;6128881;23;20342;-83
2022/08/28 08:19:03;;;;;;;18.08;9.15;;;19.70;99.90;;;;;;6154229;23;20064;-83
2022/08/28 08:21:30;;;;;;;17.08;8.70;;;19.50;99.90;;;;;;6155624;23;20370;-83
2022/08/28 08:23:55;;;;;;;14.93;8.55;;;19.70;99.90;;;;;;6155067;23;20381;-83
2022/08/28 08:26:23;;;;;;;13.35;8.65;;;19.60;99.90;;;;;;6130657;23;20100;-82
2022/08/28 08:28:50;;;;;;;12.80;8.07;;;19.80;99.90;;;;;;6130658;23;20366;-83
2022/08/28 08:31:19;;;;;;;15.82;9.20;;;20.00;99.90;;;;;;6130667;23;20025;-83
2022/08/28 08:33:47;;;;;;;15.88;8.80;;;20.00;99.90;;;;;;6130076;23;20059;-83
2022/08/28 08:36:14;;;;;;;13.70;8.10;;;20.10;99.90;;;;;;6155211;23;20005;-83
2022/08/28 08:38:41;;;;;;;22.15;9.30;;;20.10;99.90;;;;;;6155538;23;20084;-83
2022/08/28 08:41:47;;;;;;;20.45;9.60;;;20.20;99.90;;;;;;6154970;23;20013;-83
2022/08/28 08:44:24;;;;;;;16.65;8.93;;;20.50;99.90;;;;;;6155339;23;20493;-83
2022/08/28 08:47:08;;;;;;;18.85;8.35;;;20.70;99.90;;;;;;6155802;23;20346;-83
2022/08/28 08:49:37;;;;;;;21.73;10.27;;;21.20;99.90;;;;;;6130977;23;20009;-82
2022/08/28 08:52:12;;;;;;;13.57;9.00;;;21.40;99.90;;;;;;6155182;23;20457;-83
2022/08/28 08:54:43;;;;;;;14.88;9.48;;;21.60;99.90;;;;;;6156627;23;20006;-83
2022/08/28 08:57:10;;;;;;;;;;;22.00;99.90;;;;;;6156367;23;20013;-83
2022/08/28 08:59:37;;;;;;;12.55;8.10;;;22.40;99.90;;;;;;6131304;23;19900;-83
2022/08/28 09:02:13;;;;;;;16.75;9.32;;;22.50;99.90;;;;;;6130992;23;20064;-83
2022/08/28 09:04:41;;;;;;;16.10;8.27;;;22.60;99.90;;;;;;6130737;23;20032;-83
2022/08/28 09:07:17;;;;;;;15.63;8.15;;;22.60;99.90;;;;;;6155194;23;20010;-83
2022/08/28 09:10:04;;;;;;;15.23;8.38;;;22.70;99.90;;;;;;6130665;23;20021;-83
2022/08/28 09:12:42;;;;;;;18.75;8.30;;;22.60;99.90;;;;;;6155402;23;20009;-83
2022/08/28 09:15:13;;;;;;;16.00;8.18;;;22.90;99.90;;;;;;6153900;23;20014;-83
2022/08/28 09:18:04;;;;;;;10.33;7.47;;;23.00;99.90;;;;;;6154439;23;20100;-83
2022/08/28 09:20:30;;;;;;;15.55;8.40;;;23.20;99.90;;;;;;6156202;23;19998;-83
2022/08/28 09:22:56;;;;;;;13.73;7.97;;;23.30;99.90;;;;;;6130347;23;20092;-83
2022/08/28 09:25:43;;;;;;;13.90;8.13;;;23.20;99.90;;;;;;6155294;23;20016;-83
2022/08/28 09:28:33;;;;;;;13.05;7.75;;;23.30;99.90;;;;;;6130474;23;20036;-83
2022/08/28 09:31:14;;;;;;;17.42;8.50;;;23.00;99.90;;;;;;6129710;23;20045;-83
2022/08/28 09:33:46;;;;;;;11.35;7.63;;;22.90;99.90;;;;;;6154179;23;20005;-83
2022/08/28 09:36:32;;;;;;;13.48;8.45;;;23.20;99.90;;;;;;6130459;23;20032;-83
2022/08/28 09:39:09;;;;;;;10.20;7.80;;;24.60;99.90;;;;;;6154882;23;20119;-83
2022/08/28 09:45:01;;;;;;;15.43;8.63;;;25.90;99.90;;;;;;6154696;23;20033;-82
2022/08/28 09:47:47;;;;;;;16.45;6.97;;;26.20;99.90;;;;;;6154993;23;20013;-83
2022/08/28 09:50:20;;;;;;;15.98;7.07;;;26.60;99.90;;;;;;6130657;23;20025;-83
2022/08/28 09:53:15;;;;;;;15.80;7.53;;;26.60;99.90;;;;;;6129475;23;20063;-83
2022/08/28 09:56:03;;;;;;;15.32;6.70;;;26.10;99.90;;;;;;6129929;23;20037;-84
2022/08/28 09:58:38;;;;;;;12.48;6.70;;;26.00;99.90;;;;;;6154371;23;20323;-84
2022/08/28 10:01:35;;;;;;;13.40;7.55;;;25.80;99.90;;;;;;6151602;23;20017;-83
2022/08/28 10:04:15;;;;;;;11.90;6.55;;;24.60;99.90;;;;;;6130160;23;20020;-84
2022/08/28 10:06:56;;;;;;;11.10;6.90;;;24.10;99.90;;;;;;6129739;23;20786;-84
2022/08/28 10:09:31;;;;;;;17.83;7.13;;;24.10;99.90;;;;;;6156207;23;20055;-83
2022/08/28 10:12:31;;;;;;;15.43;7.30;;;24.10;99.90;;;;;;6154732;23;20012;-83
2022/08/28 10:15:12;;;;;;;12.15;6.40;;;24.00;99.90;;;;;;6129058;23;20013;-83
2022/08/28 10:17:38;;;;;;;;;;;24.30;99.90;;;;;;6155061;23;20321;-83
2022/08/28 10:20:13;;;;;;;;;;;24.20;99.90;;;;;;6130357;23;19909;-83
2022/08/28 10:22:38;;;;;;;;;;;24.20;99.90;;;;;;6130246;23;19905;-83
2022/08/28 10:25:07;;;;;;;;;;;24.70;99.90;;;;;;6130116;23;19907;-83
2022/08/28 10:27:47;;;;;;;;;;;25.80;99.90;;;;;;6130356;23;19904;-84
2022/08/28 10:30:15;;;;;;;;;;;26.20;99.90;;;;;;6154584;23;20328;-84
2022/08/28 10:33:10;;;;;;;;;;;26.70;99.90;;;;;;6129296;23;19913;-83
2022/08/28 10:35:39;;;;;;;;;;;26.50;99.90;;;;;;6110972;23;19908;-83
2022/08/28 10:38:10;;;;;;;;;;;25.80;99.90;;;;;;6130337;23;19904;-84
2022/08/28 10:40:38;;;;;;;;;;;26.20;99.90;;;;;;6154548;23;19908;-84
2022/08/28 10:43:07;;;;;;;;;;;27.20;99.90;;;;;;6154924;23;19905;-84
2022/08/28 10:45:33;;;;;;;;;;;28.10;99.90;;;;;;6154944;23;19912;-83
2022/08/28 10:48:04;;;;;;;;;;;28.00;99.90;;;;;;6155948;23;20399;-84
2022/08/28 10:50:49;;;;;;;;;;;27.20;99.90;;;;;;6154322;23;19908;-84
2022/08/28 10:53:23;;;;;;;;;;;26.30;99.90;;;;;;6128931;23;19908;-84
2022/08/28 10:55:54;;;;;;;;;;;25.80;99.90;;;;;;6129485;23;19993;-84
2022/08/28 10:58:23;;;;;;;;;;;26.10;99.90;;;;;;6153860;23;19912;-84
2022/08/28 11:00:49;;;;;;;;;;;26.70;99.90;;;;;;6154325;23;19939;-84
2022/08/28 11:03:18;;;;;;;;;;;27.60;99.90;;;;;;6129896;23;20237;-84
2022/08/28 11:05:46;;;;;;;;;;;28.60;99.90;;;;;;6129374;23;19939;-84
2022/08/28 11:08:20;;;;;;;;;;;29.00;99.90;;;;;;6130181;23;19904;-84
2022/08/28 11:10:48;;;;;;;;;;;28.90;99.90;;;;;;6129344;23;19904;-84
2022/08/28 11:13:33;;;;;;;;;;;29.20;99.90;;;;;;6155877;23;19913;-84
2022/08/28 11:15:59;;;;;;;;;;;28.90;99.90;;;;;;6129853;23;19912;-83
2022/08/28 11:18:24;;;;;;;;;;;28.00;99.90;;;;;;6154294;23;20027;-84
2022/08/28 11:24:00;;;;;;;;;;;25.90;99.90;;;;;;6153532;23;19908;-84
2022/08/28 11:26:49;;;;;;;;;;;25.10;99.90;;;;;;6154185;23;20002;-84
2022/08/28 11:29:33;;;;;;;;;;;25.00;99.90;;;;;;6114100;23;19905;-83
2022/08/28 11:32:22;;;;;;;;;;;25.50;99.90;;;;;;6156086;23;19904;-84
2022/08/28 11:34:58;;;;;;;;;;;26.40;99.90;;;;;;6088774;23;19909;-84
2022/08/28 11:37:40;;;;;;;;;;;27.30;99.90;;;;;;6154312;23;19931;-84
2022/08/28 11:40:32;;;;;;;;;;;28.10;99.90;;;;;;6154068;23;19909;-84
2022/08/28 11:43:13;;;;;;;;;;;28.90;99.90;;;;;;6120562;23;19905;-84
2022/08/28 11:45:41;;;;;;;;;;;28.10;99.90;;;;;;6129092;23;19939;-84
2022/08/28 11:48:08;;;;;;;;;;;27.30;99.90;;;;;;6155438;23;19904;-83
2022/08/28 11:50:51;;;;;;;;;;;26.50;99.90;;;;;;6155695;23;19912;-84
2022/08/28 11:53:20;;;;;;;;;;;25.90;99.90;;;;;;6129048;23;19955;-84
2022/08/28 11:56:05;;;;;;;;;;;25.60;99.90;;;;;;6154159;23;19909;-84
2022/08/28 11:58:34;;;;;;;;;;;25.50;99.90;;;;;;6138962;23;20322;-84
2022/08/28 12:01:07;;;;;;;;;;;25.20;99.90;;;;;;6129314;23;19911;-83
2022/08/28 12:03:33;;;;;;;;;;;24.80;99.90;;;;;;6127732;23;19946;-84
2022/08/28 12:05:59;;;;;;;;;;;24.50;99.90;;;;;;6153541;23;19908;-83
2022/08/28 12:08:43;;;;;;;;;;;24.30;99.90;;;;;;6129656;23;19904;-84
2022/08/28 12:11:09;;;;;;;;;;;24.20;99.90;;;;;;6153830;23;19908;-84
2022/08/28 12:13:46;;;;;;;;;;;24.20;99.90;;;;;;6128334;23;19908;-83
2022/08/28 12:16:12;;;;;;;;;;;24.60;99.90;;;;;;6153782;23;19939;-84
2022/08/28 12:18:37;;;;;;;;;;;25.00;99.90;;;;;;6129398;23;20234;-84
2022/08/28 12:21:04;;;;;;;;;;;24.80;99.90;;;;;;6128819;23;19905;-84
2022/08/28 12:23:39;;;;;;;;;;;24.90;99.90;;;;;;6154925;23;19908;-84
2022/08/28 12:26:05;;;;;;;;;;;24.70;99.90;;;;;;6129634;23;19912;-84
2022/08/28 12:28:36;;;;;;;;;;;24.50;99.90;;;;;;6129844;23;20032;-84
2022/08/28 12:31:04;;;;;;;;;;;24.50;99.90;;;;;;6154014;23;19912;-84
2022/08/28 12:33:37;;;;;;;;;;;24.40;99.90;;;;;;6153961;23;20325;-84
2022/08/28 12:36:04;;;;;;;;;;;24.60;99.90;;;;;;6129779;23;19908;-84
2022/08/28 12:38:32;;;;;;;;;;;24.80;99.90;;;;;;6154049;23;19908;-84
2022/08/28 12:40:57;;;;;;;;;;;25.00;99.90;;;;;;6129791;23;19905;-84
2022/08/28 12:43:23;;;;;;;;;;;25.60;99.90;;;;;;6129568;23;19915;-84
2022/08/28 12:45:55;;;;;;;;;;;26.20;99.90;;;;;;6129770;23;19905;-84
2022/08/28 12:48:22;;;;;;;;;;;26.90;99.90;;;;;;6153825;23;19905;-84
2022/08/28 12:50:55;;;;;;;;;;;27.40;99.90;;;;;;6129341;23;19908;-84
2022/08/28 12:53:21;;;;;;;;;;;28.00;99.90;;;;;;6129094;23;20328;-84
2022/08/28 12:55:47;;;;;;;;;;;27.70;99.90;;;;;;6153198;23;20423;-84
2022/08/28 12:58:25;;;;;;;;;;;27.50;99.90;;;;;;6129428;23;19979;-84
2022/08/28 13:00:59;;;;;;;;;;;27.10;99.90;;;;;;6129418;23;19908;-84
2022/08/28 13:03:25;;;;;;;;;;;26.50;99.90;;;;;;6154653;23;19955;-83
2022/08/28 13:06:01;;;;;;;;;;;26.00;99.90;;;;;;6130617;23;19908;-84
2022/08/28 13:08:27;;;;;;;;;;;25.40;99.90;;;;;;6155647;23;19904;-84
2022/08/28 13:10:53;;;;;;;;;;;24.90;99.90;;;;;;6157211;23;19980;-84
2022/08/28 13:13:22;;;;;;;;;;;24.60;99.90;;;;;;6130531;23;19940;-84
2022/08/28 13:15:55;;;;;;;;;;;24.10;99.90;;;;;;6130731;23;19908;-84
2022/08/28 13:18:32;;;;;;;;;;;24.00;99.90;;;;;;6130459;23;20453;-84
2022/08/28 13:21:10;;;;;;;;;;;24.10;99.90;;;;;;6156699;23;19915;-84
2022/08/28 13:23:36;;;;;;;;;;;24.30;99.90;;;;;;6154750;23;19950;-84
2022/08/28 13:26:02;;;;;;;;;;;24.60;99.90;;;;;;6130774;23;19983;-84
2022/08/28 13:28:28;;;;;;;;;;;25.20;99.90;;;;;;6129749;23;19908;-84
2022/08/28 13:30:57;;;;;;;;;;;26.30;99.90;;;;;;6130771;23;19955;-84